createdAt,value
2019-03-26T00:02:17.293Z,1.43
2019-03-26T00:04:48.721Z,1.39
2019-03-26T00:07:21.103Z,1.35
2019-03-26T00:09:52.628Z,1.28
2019-03-26T00:12:24.054Z,1.23
2019-03-26T00:14:55.506Z,1.21
2019-03-26T00:17:29.874Z,1.15
2019-03-26T00:20:01.536Z,1.12
2019-03-26T00:22:32.871Z,1.11
2019-03-26T00:25:05.649Z,1.07
2019-03-26T00:27:38.018Z,1.10
2019-03-26T00:30:09.453Z,1.09
2019-03-26T00:32:40.880Z,1.11
2019-03-26T00:35:12.624Z,1.11
2019-03-26T00:37:44.026Z,1.14
2019-03-26T00:40:16.424Z,1.19
2019-03-26T00:42:47.856Z,1.29
2019-03-26T00:45:19.191Z,1.37
2019-03-26T00:47:50.519Z,1.41
2019-03-26T00:50:21.950Z,1.43
2019-03-26T00:52:53.383Z,1.46
2019-03-26T00:55:24.810Z,1.52
2019-03-26T00:57:56.144Z,1.53
2019-03-26T01:00:42.573Z,1.55
2019-03-26T01:03:13.910Z,1.58
2019-03-26T01:05:45.717Z,1.58
2019-03-26T01:08:17.037Z,1.58
2019-03-26T01:10:48.367Z,1.61
2019-03-26T01:13:19.681Z,1.63
2019-03-26T01:15:51.159Z,1.64
2019-03-26T01:18:22.479Z,1.65
2019-03-26T01:20:53.809Z,1.70
2019-03-26T01:23:25.141Z,1.69
2019-03-26T01:25:56.669Z,1.74
2019-03-26T01:28:27.989Z,1.72
2019-03-26T01:30:59.317Z,1.74
2019-03-26T01:33:30.633Z,1.79
2019-03-26T01:36:03.026Z,1.77
2019-03-26T01:38:34.557Z,1.80
2019-03-26T01:41:05.883Z,1.85
2019-03-26T01:43:37.503Z,1.87
2019-03-26T01:46:08.921Z,1.91
2019-03-26T01:48:40.238Z,1.89
2019-03-26T01:51:11.558Z,1.88
2019-03-26T01:53:42.972Z,1.91
2019-03-26T01:56:14.303Z,1.91
2019-03-26T01:58:45.619Z,1.92
2019-03-26T02:01:16.940Z,2.02
2019-03-26T02:03:48.451Z,2.08
2019-03-26T02:06:19.772Z,2.10
2019-03-26T02:08:51.393Z,2.10
2019-03-26T02:11:22.717Z,2.14
2019-03-26T02:13:54.712Z,2.15
2019-03-26T02:16:26.042Z,2.08
2019-03-26T02:18:57.370Z,2.08
2019-03-26T02:21:31.411Z,2.05
2019-03-26T02:24:02.755Z,2.05
2019-03-26T02:26:34.079Z,2.08
2019-03-26T02:29:05.402Z,2.04
2019-03-26T02:31:36.729Z,2.04
2019-03-26T02:34:08.048Z,2.01
2019-03-26T02:36:40.267Z,1.82
2019-03-26T02:39:11.663Z,1.92
2019-03-26T02:41:42.994Z,1.92
2019-03-26T02:44:14.416Z,1.86
2019-03-26T02:46:45.736Z,1.87
2019-03-26T02:49:17.073Z,1.90
2019-03-26T02:51:48.400Z,1.97
2019-03-26T02:54:19.711Z,1.96
2019-03-26T02:56:51.136Z,1.99
2019-03-26T02:59:22.471Z,2.02
2019-03-26T03:01:53.869Z,2.07
2019-03-26T03:04:25.532Z,2.05
2019-03-26T03:06:56.893Z,2.11
2019-03-26T03:09:28.214Z,2.16
2019-03-26T03:11:59.917Z,2.14
2019-03-26T03:14:31.241Z,2.15
2019-03-26T03:17:02.560Z,2.17
2019-03-26T03:19:33.880Z,2.18
2019-03-26T03:22:05.480Z,2.15
2019-03-26T03:24:36.963Z,2.14
2019-03-26T03:27:08.290Z,2.13
2019-03-26T03:29:40.787Z,2.18
2019-03-26T03:32:12.126Z,2.17
2019-03-26T03:34:43.446Z,2.15
2019-03-26T03:37:14.771Z,2.14
2019-03-26T03:39:46.103Z,2.13
2019-03-26T03:42:17.427Z,2.18
2019-03-26T03:44:48.766Z,2.13
2019-03-26T03:47:20.082Z,2.13
2019-03-26T03:49:51.411Z,2.10
2019-03-26T03:52:22.729Z,2.09
2019-03-26T03:54:54.154Z,2.07
2019-03-26T03:57:25.750Z,2.06
2019-03-26T03:59:57.078Z,2.06
2019-03-26T04:02:28.407Z,2.05
2019-03-26T04:04:59.731Z,2.08
2019-03-26T04:07:31.145Z,2.03
2019-03-26T04:10:02.487Z,2.02
2019-03-26T04:12:33.798Z,2.02
2019-03-26T04:15:07.072Z,2.01
2019-03-26T04:17:38.388Z,2.02
2019-03-26T04:20:21.952Z,2.04
2019-03-26T04:22:53.384Z,2.01
2019-03-26T04:25:24.707Z,2.01
2019-03-26T04:27:56.037Z,2.03
2019-03-26T04:30:31.767Z,2.04
2019-03-26T04:33:04.359Z,2.05
2019-03-26T04:35:35.777Z,2.09
2019-03-26T04:38:07.103Z,2.11
2019-03-26T04:40:38.733Z,2.13
2019-03-26T04:43:10.052Z,2.12
2019-03-26T04:45:41.582Z,2.12
2019-03-26T04:48:12.916Z,2.19
2019-03-26T04:50:44.245Z,2.22
2019-03-26T04:53:15.568Z,2.24
2019-03-26T04:55:47.097Z,2.29
2019-03-26T04:58:18.421Z,2.29
2019-03-26T05:00:50.050Z,2.36
2019-03-26T05:03:21.378Z,2.37
2019-03-26T05:05:52.895Z,2.44
2019-03-26T05:08:24.224Z,2.47
2019-03-26T05:10:55.557Z,2.50
2019-03-26T05:13:26.981Z,2.55
2019-03-26T05:15:58.712Z,2.58
2019-03-26T05:18:30.040Z,2.62
2019-03-26T05:21:01.366Z,2.67
2019-03-26T05:23:32.693Z,2.68
2019-03-26T05:26:04.024Z,2.72
2019-03-26T05:28:35.345Z,2.75
2019-03-26T05:31:09.458Z,2.75
2019-03-26T05:33:43.326Z,2.81
2019-03-26T05:36:14.649Z,2.83
2019-03-26T05:38:45.973Z,2.85
2019-03-26T05:41:17.307Z,2.91
2019-03-26T05:43:48.628Z,3.03
2019-03-26T05:46:19.959Z,3.05
2019-03-26T05:48:51.283Z,3.10
2019-03-26T05:51:22.611Z,3.19
2019-03-26T05:53:53.942Z,3.28
2019-03-26T05:56:25.291Z,3.32
2019-03-26T05:58:56.602Z,3.44
2019-03-26T06:01:27.938Z,3.49
2019-03-26T06:03:59.269Z,3.41
2019-03-26T06:06:30.799Z,3.42
2019-03-26T06:09:02.326Z,3.42
2019-03-26T06:11:33.919Z,3.42
2019-03-26T06:14:05.254Z,3.35
2019-03-26T06:16:38.567Z,3.45
2019-03-26T06:19:09.635Z,3.48
2019-03-26T06:21:41.078Z,3.56
2019-03-26T06:24:12.503Z,3.55
2019-03-26T06:26:44.040Z,3.72
2019-03-26T06:29:15.375Z,3.83
2019-03-26T06:31:46.730Z,3.81
2019-03-26T06:34:18.357Z,3.86
2019-03-26T06:36:49.696Z,3.90
2019-03-26T06:39:21.220Z,3.78
2019-03-26T06:41:52.649Z,3.77
2019-03-26T06:44:23.971Z,3.71
2019-03-26T06:46:55.303Z,3.78
2019-03-26T06:49:27.900Z,3.96
2019-03-26T06:52:00.913Z,4.02
2019-03-26T06:54:32.232Z,4.21
2019-03-26T06:57:04.000Z,4.36
2019-03-26T06:59:35.325Z,4.46
2019-03-26T07:02:06.750Z,4.54
2019-03-26T07:04:47.881Z,4.64
2019-03-26T07:07:31.062Z,4.99
2019-03-26T07:09:52.236Z,5.46
2019-03-26T07:12:23.976Z,5.32
2019-03-26T07:14:55.426Z,5.36
2019-03-26T07:17:27.476Z,5.52
2019-03-26T07:19:58.900Z,5.71
2019-03-26T07:22:30.249Z,6.09
2019-03-26T07:25:01.591Z,6.15
2019-03-26T07:27:32.910Z,7.23
2019-03-26T07:30:07.025Z,8.28
2019-03-26T07:32:38.366Z,7.36
2019-03-26T07:35:09.751Z,6.58
2019-03-26T07:37:47.368Z,6.85
2019-03-26T07:40:20.526Z,6.33
2019-03-26T07:42:51.859Z,6.28
2019-03-26T07:45:23.177Z,6.24
2019-03-26T07:47:54.714Z,6.01
2019-03-26T07:50:26.038Z,6.18
2019-03-26T07:52:57.378Z,6.17
2019-03-26T07:55:29.019Z,6.16
2019-03-26T07:58:00.388Z,6.37
2019-03-26T08:00:35.750Z,6.29
2019-03-26T08:03:07.551Z,6.48
2019-03-26T08:05:38.913Z,6.41
2019-03-26T08:08:10.239Z,6.33
2019-03-26T08:10:41.571Z,6.08
2019-03-26T08:13:12.934Z,6.43
2019-03-26T08:15:44.272Z,6.52
2019-03-26T08:18:15.590Z,6.91
2019-03-26T08:20:47.223Z,6.85
2019-03-26T08:23:18.570Z,6.86
2019-03-26T08:25:49.892Z,6.51
2019-03-26T08:28:22.398Z,6.14
2019-03-26T08:30:54.904Z,6.03
2019-03-26T08:33:26.239Z,6.01
2019-03-26T08:35:57.762Z,5.95
2019-03-26T08:38:33.287Z,5.85
2019-03-26T08:41:03.152Z,5.86
2019-03-26T08:43:34.485Z,5.75
2019-03-26T08:46:05.868Z,5.70
2019-03-26T08:48:37.201Z,5.67
2019-03-26T08:51:08.628Z,5.61
2019-03-26T08:53:40.059Z,5.68
2019-03-26T08:56:11.391Z,5.80
2019-03-26T08:58:43.991Z,5.85
2019-03-26T09:01:15.309Z,5.85
2019-03-26T09:03:46.841Z,5.71
2019-03-26T09:06:18.183Z,5.72
2019-03-26T09:08:49.719Z,5.74
2019-03-26T09:11:21.037Z,5.67
2019-03-26T09:13:52.671Z,5.79
2019-03-26T09:16:25.264Z,5.61
2019-03-26T09:18:56.588Z,5.43
2019-03-26T09:21:27.908Z,5.38
2019-03-26T09:23:59.251Z,5.42
2019-03-26T09:26:30.572Z,5.35
2019-03-26T09:29:01.931Z,5.25
2019-03-26T09:31:33.245Z,5.04
2019-03-26T09:34:04.576Z,4.90
2019-03-26T09:36:36.009Z,4.93
2019-03-26T09:39:08.811Z,4.82
2019-03-26T09:41:40.345Z,4.65
2019-03-26T09:44:11.655Z,4.97
2019-03-26T09:46:42.987Z,5.00
2019-03-26T09:49:16.149Z,5.04
2019-03-26T09:51:47.572Z,5.35
2019-03-26T09:54:19.038Z,5.47
2019-03-26T09:56:50.486Z,5.70
2019-03-26T09:59:24.693Z,5.93
2019-03-26T10:01:56.269Z,5.95
2019-03-26T10:04:27.787Z,6.13
2019-03-26T10:07:02.511Z,6.42
2019-03-26T10:09:33.894Z,6.60
2019-03-26T10:12:07.157Z,6.61
2019-03-26T10:14:39.729Z,6.51
2019-03-26T10:17:11.526Z,6.72
2019-03-26T10:19:42.948Z,6.72
2019-03-26T10:22:14.441Z,6.73
2019-03-26T10:24:45.757Z,6.51
2019-03-26T10:27:17.080Z,6.24
2019-03-26T10:29:48.416Z,6.11
2019-03-26T10:32:19.738Z,6.14
2019-03-26T10:34:51.055Z,6.14
2019-03-26T10:37:22.372Z,6.16
2019-03-26T10:39:53.699Z,6.05
2019-03-26T10:42:25.119Z,6.10
2019-03-26T10:44:56.841Z,6.05
2019-03-26T10:47:28.164Z,6.28
2019-03-26T10:49:59.784Z,6.44
2019-03-26T10:52:34.392Z,6.55
2019-03-26T10:55:06.177Z,6.78
2019-03-26T10:57:37.501Z,7.18
2019-03-26T11:00:08.918Z,7.40
2019-03-26T11:02:40.264Z,7.69
2019-03-26T11:05:11.573Z,7.94
2019-03-26T11:07:42.986Z,8.16
2019-03-26T11:10:15.358Z,8.08
2019-03-26T11:12:46.677Z,7.90
2019-03-26T11:15:18.298Z,8.17
2019-03-26T11:17:49.617Z,8.55
2019-03-26T11:20:22.312Z,8.42
2019-03-26T11:22:53.706Z,8.63
2019-03-26T11:25:25.027Z,8.54
2019-03-26T11:27:56.621Z,8.83
2019-03-26T11:30:27.940Z,8.69
2019-03-26T11:32:59.261Z,8.79
2019-03-26T11:35:30.579Z,8.57
2019-03-26T11:38:02.317Z,8.65
2019-03-26T11:40:33.640Z,8.78
2019-03-26T11:43:04.963Z,8.74
2019-03-26T11:45:36.281Z,8.71
2019-03-26T11:48:09.261Z,8.56
2019-03-26T11:50:40.781Z,8.47
2019-03-26T11:53:12.205Z,8.34
2019-03-26T11:55:43.525Z,8.34
2019-03-26T11:58:15.123Z,8.65
2019-03-26T12:00:46.469Z,9.11
2019-03-26T12:03:18.003Z,9.03
2019-03-26T12:05:49.407Z,8.74
2019-03-26T12:08:20.743Z,8.53
2019-03-26T12:10:52.065Z,8.56
2019-03-26T12:13:23.503Z,8.87
2019-03-26T12:15:54.915Z,9.04
2019-03-26T12:18:26.257Z,9.17
2019-03-26T12:20:57.622Z,9.39
2019-03-26T12:23:28.966Z,9.00
2019-03-26T12:26:00.500Z,9.00
2019-03-26T12:28:31.835Z,8.97
2019-03-26T12:31:04.017Z,9.06
2019-03-26T12:33:36.430Z,8.86
2019-03-26T12:36:07.692Z,8.66
2019-03-26T12:38:39.236Z,8.67
2019-03-26T12:41:10.561Z,8.64
2019-03-26T12:43:42.174Z,8.68
2019-03-26T12:46:13.582Z,8.73
2019-03-26T12:48:44.915Z,8.40
2019-03-26T12:51:16.232Z,8.17
2019-03-26T12:53:47.596Z,8.16
2019-03-26T12:56:18.921Z,8.20
2019-03-26T12:58:50.234Z,8.29
2019-03-26T13:01:21.545Z,8.62
2019-03-26T13:03:52.858Z,8.47
2019-03-26T13:06:24.171Z,8.32
2019-03-26T13:08:55.540Z,8.13
2019-03-26T13:11:26.883Z,8.03
2019-03-26T13:13:59.909Z,8.09
2019-03-26T13:19:20.741Z,8.63
2019-03-26T13:21:52.364Z,8.84
2019-03-26T13:24:24.734Z,9.08
2019-03-26T13:27:00.074Z,8.68
2019-03-26T13:29:31.395Z,8.87
2019-03-26T13:32:02.720Z,8.75
2019-03-26T13:34:34.048Z,8.66
2019-03-26T13:37:05.656Z,8.34
2019-03-26T13:39:43.077Z,8.60
2019-03-26T13:42:10.082Z,8.48
2019-03-26T13:44:42.971Z,8.28
2019-03-26T13:47:16.196Z,8.10
2019-03-26T13:49:49.395Z,8.03
2019-03-26T13:52:20.705Z,8.05
2019-03-26T13:54:52.027Z,8.14
2019-03-26T13:57:23.353Z,8.19
2019-03-26T13:59:55.036Z,8.14
2019-03-26T14:02:26.653Z,8.20
2019-03-26T14:04:58.377Z,8.47
2019-03-26T14:07:31.131Z,8.55
2019-03-26T14:10:02.455Z,8.23
2019-03-26T14:12:34.444Z,8.23
2019-03-26T14:15:07.340Z,8.26
2019-03-26T14:17:38.659Z,8.09
2019-03-26T14:20:14.591Z,7.88
2019-03-26T14:22:45.964Z,7.83
2019-03-26T14:25:17.683Z,7.61
2019-03-26T14:27:49.435Z,7.58
2019-03-26T14:30:36.370Z,7.69
2019-03-26T14:33:08.014Z,7.84
2019-03-26T14:35:39.529Z,7.84
2019-03-26T14:38:10.909Z,7.90
2019-03-26T14:40:53.893Z,7.87
2019-03-26T14:43:15.377Z,7.66
2019-03-26T14:45:48.315Z,7.62
2019-03-26T14:48:21.409Z,7.39
2019-03-26T14:51:04.126Z,7.28
2019-03-26T14:53:40.019Z,7.31
2019-03-26T14:56:16.356Z,7.27
2019-03-26T14:58:48.661Z,7.45
2019-03-26T15:01:21.742Z,7.49
2019-03-26T15:03:57.289Z,7.46
2019-03-26T15:06:30.055Z,7.53
2019-03-26T15:09:12.956Z,7.51
2019-03-26T15:11:57.529Z,7.44
2019-03-26T15:14:36.643Z,7.33
2019-03-26T15:17:11.010Z,7.25
2019-03-26T15:19:42.350Z,7.17
2019-03-26T15:22:13.679Z,7.03
2019-03-26T15:24:45.087Z,6.91
2019-03-26T15:27:17.780Z,6.44
2019-03-26T15:29:49.111Z,6.18
2019-03-26T15:32:20.439Z,5.90
2019-03-26T15:34:51.779Z,5.86
2019-03-26T15:37:24.384Z,5.83
2019-03-26T15:39:55.814Z,5.83
2019-03-26T15:42:27.279Z,5.79
2019-03-26T15:44:58.616Z,5.82
2019-03-26T15:47:29.973Z,5.92
2019-03-26T15:50:01.318Z,6.00
2019-03-26T15:52:35.005Z,6.03
2019-03-26T15:55:14.589Z,6.11
2019-03-26T15:57:56.290Z,6.12
2019-03-26T16:00:33.024Z,6.15
2019-03-26T16:03:05.590Z,6.25
2019-03-26T16:05:42.278Z,6.30
2019-03-26T16:08:13.904Z,6.30
2019-03-26T16:10:45.243Z,6.30
2019-03-26T16:13:16.602Z,6.33
2019-03-26T16:15:47.935Z,6.35
2019-03-26T16:18:20.392Z,6.35
2019-03-26T16:20:51.746Z,6.38
2019-03-26T16:23:25.092Z,6.39
2019-03-26T16:25:56.128Z,6.38
2019-03-26T16:28:27.470Z,6.35
2019-03-26T16:31:06.842Z,6.34
2019-03-26T16:33:38.448Z,6.34
2019-03-26T16:36:10.919Z,6.33
2019-03-26T16:38:42.244Z,6.37
2019-03-26T16:41:14.312Z,6.38
2019-03-26T16:43:48.215Z,6.37
2019-03-26T16:46:22.472Z,6.39
2019-03-26T16:48:55.460Z,6.38
2019-03-26T16:51:26.828Z,6.37
2019-03-26T16:53:58.167Z,6.36
2019-03-26T16:56:29.551Z,6.36
2019-03-26T16:59:00.867Z,6.34
2019-03-26T17:01:32.642Z,6.29
2019-03-26T17:04:03.985Z,6.23
2019-03-26T17:06:35.361Z,6.18
2019-03-26T17:09:07.977Z,6.13
2019-03-26T17:11:39.316Z,6.09
2019-03-26T17:14:11.518Z,6.07
2019-03-26T17:16:42.882Z,6.04
2019-03-26T17:19:14.895Z,6.05
2019-03-26T17:21:47.488Z,6.07
2019-03-26T17:24:19.043Z,6.05
2019-03-26T17:26:50.410Z,6.03
2019-03-26T17:29:21.800Z,6.02
2019-03-26T17:31:55.862Z,5.99
2019-03-26T17:34:27.376Z,5.96
2019-03-26T17:36:58.763Z,5.94
2019-03-26T17:39:31.613Z,5.94
2019-03-26T17:42:16.215Z,5.95
2019-03-26T17:44:36.495Z,5.95
2019-03-26T17:47:07.988Z,5.97
2019-03-26T17:49:41.705Z,5.96
2019-03-26T17:52:13.383Z,5.96
2019-03-26T17:54:44.723Z,5.97
2019-03-26T17:57:16.084Z,5.96
2019-03-26T17:59:50.166Z,5.97
2019-03-26T18:02:21.539Z,5.98
2019-03-26T18:04:52.912Z,5.98
2019-03-26T18:07:24.970Z,6.00
2019-03-26T18:09:56.608Z,6.00
2019-03-26T18:12:30.991Z,5.98
2019-03-26T18:15:05.023Z,5.96
2019-03-26T18:17:36.428Z,5.98
2019-03-26T18:20:09.373Z,5.99
2019-03-26T18:22:40.798Z,6.00
2019-03-26T18:25:12.334Z,5.98
2019-03-26T18:27:43.808Z,5.98
2019-03-26T18:30:15.367Z,5.98
2019-03-26T18:32:49.191Z,6.00
2019-03-26T18:35:21.826Z,6.00
2019-03-26T18:37:53.175Z,6.01
2019-03-26T18:40:25.008Z,6.00
2019-03-26T18:42:58.914Z,6.00
2019-03-26T18:45:30.471Z,5.93
2019-03-26T18:48:09.011Z,5.71
2019-03-26T18:50:50.911Z,5.58
2019-03-26T18:53:23.667Z,5.46
2019-03-26T18:56:04.238Z,5.39
2019-03-26T18:58:45.230Z,5.33
2019-03-26T19:01:27.404Z,5.32
2019-03-26T19:04:03.189Z,5.26
2019-03-26T19:06:41.298Z,5.17
2019-03-26T19:09:15.207Z,5.16
2019-03-26T19:11:46.952Z,5.18
2019-03-26T19:14:21.474Z,5.09
2019-03-26T19:16:53.410Z,5.02
2019-03-26T19:19:29.844Z,5.00
2019-03-26T19:22:01.215Z,4.93
2019-03-26T19:24:34.303Z,4.88
2019-03-26T19:27:06.600Z,4.87
2019-03-26T19:29:40.313Z,4.83
2019-03-26T19:32:13.325Z,4.79
2019-03-26T19:34:46.831Z,4.74
2019-03-26T19:37:20.020Z,4.68
2019-03-26T19:39:54.531Z,4.65
2019-03-26T19:42:26.484Z,4.65
2019-03-26T19:44:59.450Z,4.65
2019-03-26T19:47:30.943Z,4.66
2019-03-26T19:50:02.723Z,4.65
2019-03-26T19:52:35.242Z,4.65
2019-03-26T19:55:08.120Z,4.66
2019-03-26T19:57:46.014Z,4.65
2019-03-26T20:00:19.650Z,4.66
2019-03-26T20:02:52.626Z,4.65
2019-03-26T20:05:23.974Z,4.66
2019-03-26T20:07:55.315Z,4.70
2019-03-26T20:10:29.861Z,4.72
2019-03-26T20:13:03.060Z,4.73
2019-03-26T20:15:37.388Z,4.76
2019-03-26T20:18:11.905Z,4.72
2019-03-26T20:20:45.126Z,4.72
2019-03-26T20:23:24.843Z,4.73
2019-03-26T20:25:52.162Z,4.69
2019-03-26T20:28:28.923Z,4.38
2019-03-26T20:31:01.791Z,4.27
2019-03-26T20:33:33.175Z,4.19
2019-03-26T20:36:06.381Z,4.11
2019-03-26T20:38:43.072Z,4.08
2019-03-26T20:41:16.231Z,4.03
2019-03-26T20:43:51.361Z,4.00
2019-03-26T20:46:22.693Z,3.93
2019-03-26T20:48:54.029Z,3.90
2019-03-26T20:51:34.351Z,3.84
2019-03-26T20:54:07.605Z,3.82
2019-03-26T20:56:40.826Z,3.76
2019-03-26T20:59:12.074Z,3.68
2019-03-26T21:01:45.672Z,3.61
2019-03-26T21:04:20.418Z,3.55
2019-03-26T21:06:58.172Z,3.46
2019-03-26T21:09:31.081Z,3.38
2019-03-26T21:12:02.627Z,3.32
2019-03-26T21:14:33.985Z,3.21
2019-03-26T21:17:05.411Z,3.12
2019-03-26T21:19:37.123Z,3.07
2019-03-26T21:22:12.756Z,3.00
2019-03-26T21:24:47.155Z,2.90
2019-03-26T21:27:23.239Z,2.83
2019-03-26T21:30:09.764Z,2.75
2019-03-26T21:32:31.143Z,2.69
2019-03-26T21:35:07.367Z,2.66
2019-03-26T21:37:42.814Z,2.62
2019-03-26T21:40:15.795Z,2.58
2019-03-26T21:42:47.904Z,2.51
2019-03-26T21:45:29.971Z,2.47
2019-03-26T21:48:03.927Z,2.43
2019-03-26T21:50:37.927Z,2.32
2019-03-26T21:53:13.349Z,2.21
2019-03-26T21:55:48.744Z,2.01
2019-03-26T21:58:21.667Z,1.87
2019-03-26T22:00:56.044Z,1.80
2019-03-26T22:03:32.761Z,1.73
2019-03-26T22:06:04.098Z,1.72
2019-03-26T22:08:38.947Z,1.68
2019-03-26T22:11:11.749Z,1.66
2019-03-26T22:13:45.900Z,1.60
2019-03-26T22:16:22.977Z,1.52
2019-03-26T22:18:57.866Z,1.43
2019-03-26T22:21:29.191Z,1.29
2019-03-26T22:24:00.542Z,1.19
2019-03-26T22:26:33.519Z,1.10
2019-03-26T22:29:04.841Z,1.08
2019-03-26T22:31:36.188Z,1.05
2019-03-26T22:34:08.109Z,1.05
2019-03-26T22:36:39.556Z,1.01
2019-03-26T22:39:12.138Z,0.96
2019-03-26T22:41:43.796Z,0.91
2019-03-26T22:44:15.222Z,0.85
2019-03-26T22:46:46.580Z,0.81
2019-03-26T22:49:18.208Z,0.78
2019-03-26T22:51:49.582Z,0.76
2019-03-26T22:54:20.951Z,0.75
2019-03-26T22:56:52.319Z,0.72
2019-03-26T22:59:27.009Z,0.73
2019-03-26T23:01:59.761Z,0.72
2019-03-26T23:04:31.108Z,0.69
2019-03-26T23:07:03.027Z,0.66
2019-03-26T23:09:34.345Z,0.61
2019-03-26T23:12:05.710Z,0.57
2019-03-26T23:14:45.084Z,0.57
2019-03-26T23:17:10.322Z,0.53
2019-03-26T23:19:41.629Z,0.49
2019-03-26T23:22:13.180Z,0.42
2019-03-26T23:24:44.520Z,0.34
2019-03-26T23:27:15.858Z,0.26
2019-03-26T23:29:47.201Z,0.17
2019-03-26T23:32:19.189Z,0.14
2019-03-26T23:34:50.715Z,0.11
2019-03-26T23:37:22.070Z,0.09
2019-03-26T23:39:54.501Z,0.07
2019-03-26T23:42:26.330Z,0.01
2019-03-26T23:44:58.815Z,-0.05
2019-03-26T23:47:30.503Z,-0.10
2019-03-26T23:50:01.834Z,-0.13
2019-03-26T23:52:33.391Z,-0.19
2019-03-26T23:55:06.802Z,-0.23
2019-03-26T23:57:38.475Z,-0.27
